createdAt,value
2022-07-28T00:00:15.314Z,16.80
2022-07-28T00:02:42.299Z,16.90
2022-07-28T00:05:09.866Z,16.80
2022-07-28T00:07:37.021Z,16.80
2022-07-28T00:10:05.357Z,16.80
2022-07-28T00:12:32.378Z,16.80
2022-07-28T00:14:59.625Z,16.70
2022-07-28T00:17:26.694Z,16.80
2022-07-28T00:19:53.827Z,16.80
2022-07-28T00:22:20.904Z,16.80
2022-07-28T00:24:49.268Z,16.90
2022-07-28T00:27:19.224Z,16.80
2022-07-28T00:29:50.249Z,16.80
2022-07-28T00:32:21.071Z,16.90
2022-07-28T00:34:52.860Z,17.00
2022-07-28T00:37:20.929Z,16.90
2022-07-28T00:39:47.917Z,16.80
2022-07-28T00:42:19.723Z,16.90
2022-07-28T00:44:47.712Z,16.80
2022-07-28T00:47:15.160Z,16.90
2022-07-28T00:49:45.532Z,16.80
2022-07-28T00:52:13.511Z,16.70
2022-07-28T00:54:41.072Z,16.80
2022-07-28T00:57:08.165Z,16.80
2022-07-28T00:59:35.160Z,16.80
2022-07-28T01:02:03.646Z,16.80
2022-07-28T01:04:31.104Z,16.90
2022-07-28T01:07:23.714Z,16.80
2022-07-28T01:10:10.781Z,16.70
2022-07-28T01:13:13.276Z,16.60
2022-07-28T01:15:53.495Z,16.70
2022-07-28T01:18:27.309Z,16.70
2022-07-28T01:21:01.219Z,16.70
2022-07-28T01:23:42.238Z,16.60
2022-07-28T01:26:36.284Z,16.60
2022-07-28T01:29:34.931Z,16.50
2022-07-28T01:32:19.383Z,16.60
2022-07-28T01:34:59.355Z,16.40
2022-07-28T01:37:30.050Z,16.40
2022-07-28T01:40:03.926Z,16.40
2022-07-28T01:42:39.099Z,16.40
2022-07-28T01:45:08.935Z,16.40
2022-07-28T01:47:36.620Z,16.40
2022-07-28T01:50:08.480Z,16.40
2022-07-28T01:52:37.769Z,16.40
2022-07-28T01:55:06.711Z,16.30
2022-07-28T01:57:35.349Z,16.40
2022-07-28T02:00:05.406Z,16.40
2022-07-28T02:02:33.618Z,16.40
2022-07-28T02:05:04.599Z,16.30
2022-07-28T02:07:33.217Z,16.30
2022-07-28T02:10:01.513Z,16.20
2022-07-28T02:12:29.659Z,16.20
2022-07-28T02:14:58.456Z,16.20
2022-07-28T02:17:31.314Z,16.20
2022-07-28T02:19:59.669Z,16.10
2022-07-28T02:22:28.070Z,16.20
2022-07-28T02:24:56.564Z,16.10
2022-07-28T02:27:37.675Z,16.00
2022-07-28T02:30:22.295Z,16.10
2022-07-28T02:32:56.776Z,16.10
2022-07-28T02:35:31.334Z,16.10
2022-07-28T02:38:10.544Z,16.00
2022-07-28T02:40:41.417Z,16.10
2022-07-28T02:43:13.985Z,16.10
2022-07-28T02:45:44.952Z,16.00
2022-07-28T02:48:15.751Z,16.10
2022-07-28T02:50:45.855Z,16.10
2022-07-28T02:53:16.187Z,16.10
2022-07-28T02:55:48.209Z,16.10
2022-07-28T02:58:19.093Z,16.20
2022-07-28T03:00:47.587Z,16.10
2022-07-28T03:03:17.388Z,16.00
2022-07-28T03:05:45.157Z,16.00
2022-07-28T03:08:12.368Z,16.20
2022-07-28T03:10:39.494Z,16.10
2022-07-28T03:13:08.088Z,16.00
2022-07-28T03:15:36.861Z,16.00
2022-07-28T03:18:06.427Z,15.90
2022-07-28T03:20:33.943Z,15.90
2022-07-28T03:23:02.119Z,15.90
2022-07-28T03:25:39.696Z,15.80
2022-07-28T03:28:09.295Z,15.80
2022-07-28T03:30:48.689Z,15.80
2022-07-28T03:33:16.261Z,15.80
2022-07-28T03:35:50.907Z,15.70
2022-07-28T03:38:29.865Z,15.70
2022-07-28T03:40:58.739Z,15.60
2022-07-28T03:43:28.640Z,15.60
2022-07-28T03:45:55.700Z,15.60
2022-07-28T03:48:29.999Z,15.60
2022-07-28T03:50:57.541Z,15.60
2022-07-28T03:53:29.801Z,15.60
2022-07-28T03:55:57.097Z,15.70
2022-07-28T03:58:28.424Z,15.60
2022-07-28T04:00:57.961Z,15.50
2022-07-28T04:03:39.433Z,15.40
2022-07-28T04:06:14.173Z,15.50
2022-07-28T04:08:42.391Z,15.30
2022-07-28T04:11:09.393Z,15.50
2022-07-28T04:13:37.259Z,15.30
2022-07-28T04:16:05.530Z,15.40
2022-07-28T04:18:32.703Z,15.40
2022-07-28T04:20:59.894Z,15.50
2022-07-28T04:23:26.897Z,15.60
2022-07-28T04:25:53.899Z,15.60
2022-07-28T04:28:20.956Z,15.60
2022-07-28T04:30:48.112Z,15.60
2022-07-28T04:33:15.399Z,15.60
2022-07-28T04:35:42.425Z,15.70
2022-07-28T04:38:09.588Z,15.90
2022-07-28T04:40:37.086Z,15.90
2022-07-28T04:43:04.199Z,15.80
2022-07-28T04:45:31.657Z,15.80
2022-07-28T04:47:58.728Z,15.90
2022-07-28T04:50:25.876Z,15.90
2022-07-28T04:52:52.868Z,16.00
2022-07-28T04:55:19.954Z,15.90
2022-07-28T04:57:46.982Z,16.00
2022-07-28T05:00:15.401Z,16.00
2022-07-28T05:02:44.605Z,16.20
2022-07-28T05:05:13.186Z,16.40
2022-07-28T05:07:41.450Z,16.40
2022-07-28T05:10:11.162Z,16.30
2022-07-28T05:12:38.282Z,16.40
2022-07-28T05:15:07.482Z,16.50
2022-07-28T05:17:37.119Z,16.70
2022-07-28T05:20:06.259Z,16.70
2022-07-28T05:22:53.694Z,16.80
2022-07-28T05:25:23.684Z,16.90
2022-07-28T05:27:51.862Z,17.00
2022-07-28T05:30:19.989Z,17.10
2022-07-28T05:32:49.481Z,17.30
2022-07-28T05:35:17.014Z,17.30
2022-07-28T05:37:44.066Z,17.30
2022-07-28T05:40:14.897Z,17.30
2022-07-28T05:42:47.808Z,17.40
2022-07-28T05:45:17.286Z,17.20
2022-07-28T05:47:48.361Z,17.00
2022-07-28T05:50:17.515Z,16.90
2022-07-28T05:52:45.776Z,16.80
2022-07-28T05:55:13.464Z,16.90
2022-07-28T05:57:41.358Z,17.00
2022-07-28T06:00:18.826Z,17.20
2022-07-28T06:02:49.127Z,17.40
2022-07-28T06:05:22.064Z,17.60
2022-07-28T06:07:51.500Z,17.60
2022-07-28T06:10:23.205Z,17.80
2022-07-28T06:12:53.829Z,17.80
2022-07-28T06:15:27.091Z,17.80
2022-07-28T06:17:55.815Z,17.80
2022-07-28T06:20:24.611Z,17.90
2022-07-28T06:22:55.135Z,18.00
2022-07-28T06:25:25.663Z,18.00
2022-07-28T06:28:00.397Z,18.10
2022-07-28T06:30:28.480Z,18.30
2022-07-28T06:32:56.606Z,18.50
2022-07-28T06:35:23.860Z,18.60
2022-07-28T06:37:53.083Z,18.50
2022-07-28T06:40:21.244Z,18.60
2022-07-28T06:42:49.505Z,18.70
2022-07-28T06:45:20.890Z,18.70
2022-07-28T06:47:51.441Z,18.60
2022-07-28T06:50:25.299Z,18.50
2022-07-28T06:52:56.263Z,18.70
2022-07-28T06:55:23.579Z,18.80
2022-07-28T06:57:51.103Z,19.00
2022-07-28T07:00:18.499Z,19.20
2022-07-28T07:02:45.471Z,19.20
2022-07-28T07:05:13.856Z,19.40
2022-07-28T07:07:43.377Z,19.60
2022-07-28T07:10:11.567Z,19.80
2022-07-28T07:12:38.659Z,19.90
2022-07-28T07:15:07.183Z,19.70
2022-07-28T07:17:34.239Z,19.90
2022-07-28T07:20:01.253Z,19.90
2022-07-28T07:22:28.183Z,19.90
2022-07-28T07:24:57.631Z,20.00
2022-07-28T07:27:25.165Z,20.00
2022-07-28T07:29:52.161Z,20.20
2022-07-28T07:32:19.199Z,20.10
2022-07-28T07:34:46.198Z,19.60
2022-07-28T07:37:14.662Z,19.30
2022-07-28T07:39:42.343Z,19.30
2022-07-28T07:42:09.751Z,19.40
2022-07-28T07:44:36.734Z,19.70
2022-07-28T07:47:04.252Z,20.20
2022-07-28T07:49:45.594Z,20.50
2022-07-28T07:52:14.370Z,20.80
2022-07-28T07:54:42.064Z,21.10
2022-07-28T07:57:10.072Z,21.30
2022-07-28T07:59:37.462Z,21.20
2022-07-28T08:02:05.150Z,21.00
2022-07-28T08:04:32.257Z,21.10
2022-07-28T08:07:04.997Z,21.20
2022-07-28T08:09:33.494Z,20.80
2022-07-28T08:12:00.441Z,20.80
2022-07-28T08:14:27.588Z,21.20
2022-07-28T08:16:56.559Z,21.30
2022-07-28T08:19:23.874Z,21.60
2022-07-28T08:21:51.460Z,21.80
2022-07-28T08:24:27.692Z,21.80
2022-07-28T08:27:02.221Z,21.80
2022-07-28T08:29:29.385Z,22.20
2022-07-28T08:31:56.797Z,22.20
2022-07-28T08:34:26.195Z,22.30
2022-07-28T08:36:59.238Z,22.70
2022-07-28T08:39:26.307Z,22.50
2022-07-28T08:42:14.371Z,22.50
2022-07-28T08:44:59.256Z,22.70
2022-07-28T08:47:40.433Z,22.50
2022-07-28T08:50:14.084Z,22.50
2022-07-28T08:52:45.587Z,22.70
2022-07-28T08:55:19.540Z,22.90
2022-07-28T08:57:47.562Z,23.00
2022-07-28T09:00:15.031Z,23.20
2022-07-28T09:02:46.495Z,23.40
2022-07-28T09:05:23.533Z,23.50
2022-07-28T09:07:54.742Z,23.40
2022-07-28T09:10:22.942Z,23.80
2022-07-28T09:12:50.002Z,23.90
2022-07-28T09:15:17.040Z,23.50
2022-07-28T09:17:44.000Z,23.80
2022-07-28T09:20:13.976Z,23.90
2022-07-28T09:23:02.899Z,24.00
2022-07-28T09:25:30.953Z,23.70
2022-07-28T09:28:12.788Z,23.80
2022-07-28T09:30:54.160Z,24.00
2022-07-28T09:33:40.899Z,24.20
2022-07-28T09:36:16.024Z,24.50
2022-07-28T09:38:43.282Z,24.90
2022-07-28T09:41:11.148Z,25.50
2022-07-28T09:43:43.411Z,25.50
2022-07-28T09:46:14.194Z,25.50
2022-07-28T09:48:50.658Z,25.50
2022-07-28T09:51:25.007Z,25.40
2022-07-28T09:53:53.016Z,25.10
2022-07-28T09:56:21.313Z,25.40
2022-07-28T09:58:59.107Z,25.70
2022-07-28T10:01:35.170Z,25.90
2022-07-28T10:04:04.791Z,26.00
2022-07-28T10:06:34.608Z,25.50
2022-07-28T10:09:07.395Z,25.30
2022-07-28T10:11:37.863Z,25.10
2022-07-28T10:14:08.584Z,24.90
2022-07-28T10:16:52.736Z,24.80
2022-07-28T10:19:19.815Z,25.10
2022-07-28T10:21:48.695Z,25.30
2022-07-28T10:24:23.598Z,25.70
2022-07-28T10:26:52.689Z,25.40
2022-07-28T10:29:23.341Z,25.30
2022-07-28T10:31:55.127Z,25.40
2022-07-28T10:34:48.534Z,25.30
2022-07-28T10:37:22.039Z,25.50
2022-07-28T10:40:00.051Z,25.40
2022-07-28T10:42:28.608Z,25.70
2022-07-28T10:44:58.046Z,25.80
2022-07-28T10:47:32.502Z,25.80
2022-07-28T10:50:05.188Z,26.20
2022-07-28T10:52:51.602Z,26.70
2022-07-28T10:55:38.378Z,26.70
2022-07-28T10:58:19.653Z,26.90
2022-07-28T11:00:57.097Z,27.30
2022-07-28T11:03:45.590Z,27.00
2022-07-28T11:06:34.640Z,26.70
2022-07-28T11:09:17.035Z,26.90
2022-07-28T11:11:47.107Z,26.90
2022-07-28T11:14:24.450Z,26.70
2022-07-28T11:17:15.763Z,26.70
2022-07-28T11:22:34.156Z,27.30
2022-07-28T11:25:20.270Z,27.20
2022-07-28T11:27:52.151Z,27.60
2022-07-28T11:30:20.411Z,28.30
2022-07-28T11:32:50.510Z,28.40
2022-07-28T11:35:19.562Z,28.30
2022-07-28T11:38:01.876Z,28.30
2022-07-28T11:40:43.814Z,28.80
2022-07-28T11:43:37.915Z,28.50
2022-07-28T11:46:09.803Z,28.10
2022-07-28T11:48:44.680Z,27.60
2022-07-28T11:51:14.125Z,27.90
2022-07-28T11:53:47.772Z,27.90
2022-07-28T11:56:31.608Z,28.10
2022-07-28T11:59:02.328Z,28.10
2022-07-28T12:01:31.839Z,28.40
2022-07-28T12:04:00.014Z,28.40
2022-07-28T12:06:40.301Z,28.80
2022-07-28T12:09:10.290Z,28.80
2022-07-28T12:11:41.158Z,29.10
2022-07-28T12:14:14.544Z,29.00
2022-07-28T12:16:44.914Z,28.70
2022-07-28T12:19:16.830Z,28.80
2022-07-28T12:21:48.276Z,29.10
2022-07-28T12:24:27.762Z,29.40
2022-07-28T12:26:55.093Z,29.90
2022-07-28T12:29:22.130Z,30.20
2022-07-28T12:31:59.257Z,30.40
2022-07-28T12:34:31.748Z,29.90
2022-07-28T12:37:02.539Z,29.20
2022-07-28T12:39:32.486Z,29.00
2022-07-28T12:42:13.285Z,29.00
2022-07-28T12:44:47.535Z,29.50
2022-07-28T12:47:16.225Z,29.90
2022-07-28T12:49:44.764Z,29.80
2022-07-28T12:52:29.949Z,29.50
2022-07-28T12:54:57.190Z,29.40
2022-07-28T12:57:51.683Z,29.80
2022-07-28T13:00:31.951Z,29.80
2022-07-28T13:03:02.185Z,29.70
2022-07-28T13:05:56.627Z,29.70
2022-07-28T13:08:29.293Z,29.20
2022-07-28T13:10:59.135Z,29.20
2022-07-28T13:13:27.182Z,29.30
2022-07-28T13:16:30.567Z,28.90
2022-07-28T13:19:03.321Z,28.80
2022-07-28T13:21:59.555Z,28.40
2022-07-28T13:24:29.210Z,28.50
2022-07-28T13:26:58.096Z,28.40
2022-07-28T13:29:25.863Z,28.30
2022-07-28T13:31:54.894Z,28.30
2022-07-28T13:34:22.267Z,28.40
2022-07-28T13:36:49.341Z,28.50
2022-07-28T13:39:16.301Z,28.50
2022-07-28T13:41:56.737Z,28.40
2022-07-28T13:44:30.758Z,28.30
2022-07-28T13:46:59.694Z,28.50
2022-07-28T13:49:29.271Z,28.70
2022-07-28T13:51:56.362Z,29.00
2022-07-28T13:54:24.720Z,29.40
2022-07-28T13:57:14.086Z,29.60
2022-07-28T13:59:45.712Z,29.30
2022-07-28T14:02:15.846Z,29.10
2022-07-28T14:04:45.980Z,29.10
2022-07-28T14:07:21.322Z,29.10
2022-07-28T14:09:50.712Z,29.30
2022-07-28T14:12:18.581Z,29.10
2022-07-28T14:14:47.964Z,29.00
2022-07-28T14:20:10.581Z,29.10
2022-07-28T14:22:37.515Z,29.00
2022-07-28T14:25:05.043Z,28.90
2022-07-28T14:27:32.625Z,28.80
2022-07-28T14:29:59.655Z,29.00
2022-07-28T14:32:32.717Z,29.20
2022-07-28T14:35:00.108Z,29.40
2022-07-28T14:37:36.291Z,29.50
2022-07-28T14:40:16.282Z,29.40
2022-07-28T14:42:43.952Z,29.30
2022-07-28T14:45:11.697Z,29.30
2022-07-28T14:47:44.968Z,29.20
2022-07-28T14:50:13.336Z,29.00
2022-07-28T14:52:40.515Z,28.90
2022-07-28T14:55:08.144Z,29.10
2022-07-28T14:57:48.191Z,29.00
2022-07-28T15:00:28.733Z,28.80
2022-07-28T15:02:55.915Z,28.80
2022-07-28T15:05:23.171Z,29.10
2022-07-28T15:07:52.257Z,29.30
2022-07-28T15:10:20.405Z,29.60
2022-07-28T15:12:47.616Z,29.80
2022-07-28T15:15:15.660Z,29.60
2022-07-28T15:17:42.722Z,29.70
2022-07-28T15:20:12.173Z,29.60
2022-07-28T15:22:39.197Z,29.20
2022-07-28T15:25:07.140Z,29.30
2022-07-28T15:27:34.251Z,29.30
2022-07-28T15:30:03.015Z,29.20
2022-07-28T15:32:31.840Z,29.40
2022-07-28T15:34:59.804Z,29.30
2022-07-28T15:37:28.003Z,29.30
2022-07-28T15:39:55.139Z,29.30
2022-07-28T15:42:22.107Z,29.20
2022-07-28T15:44:58.075Z,29.20
2022-07-28T15:47:27.768Z,29.10
2022-07-28T15:49:54.689Z,28.80
2022-07-28T15:52:21.620Z,28.70
2022-07-28T15:54:48.628Z,28.60
2022-07-28T15:57:16.965Z,28.60
2022-07-28T15:59:51.098Z,28.70
2022-07-28T16:02:29.224Z,28.80
2022-07-28T16:04:56.128Z,28.80
2022-07-28T16:07:29.370Z,28.80
2022-07-28T16:09:56.582Z,28.80
2022-07-28T16:12:47.408Z,28.80
2022-07-28T16:15:14.485Z,28.60
2022-07-28T16:17:42.167Z,28.80
2022-07-28T16:20:10.530Z,28.90
2022-07-28T16:22:51.732Z,28.90
2022-07-28T16:25:20.707Z,29.00
2022-07-28T16:27:48.997Z,29.00
2022-07-28T16:30:18.878Z,28.90
2022-07-28T16:32:46.644Z,28.80
2022-07-28T16:35:14.609Z,28.90
2022-07-28T16:37:42.028Z,28.80
2022-07-28T16:40:15.257Z,28.80
2022-07-28T16:42:42.976Z,28.80
2022-07-28T16:45:10.576Z,28.60
2022-07-28T16:47:37.600Z,28.60
2022-07-28T16:50:04.796Z,28.60
2022-07-28T16:52:35.324Z,28.50
2022-07-28T16:55:02.262Z,28.50
2022-07-28T16:57:35.485Z,28.50
2022-07-28T17:00:08.325Z,28.80
2022-07-28T17:02:35.964Z,28.90
2022-07-28T17:05:03.043Z,29.10
2022-07-28T17:07:30.258Z,29.30
2022-07-28T17:10:05.170Z,29.60
2022-07-28T17:12:49.731Z,29.80
2022-07-28T17:15:24.697Z,29.90
2022-07-28T17:17:53.103Z,29.70
2022-07-28T17:20:28.260Z,29.40
2022-07-28T17:22:55.248Z,29.30
2022-07-28T17:25:52.313Z,29.10
2022-07-28T17:28:17.087Z,29.00
2022-07-28T17:30:52.505Z,28.80
2022-07-28T17:33:19.568Z,28.50
2022-07-28T17:35:46.603Z,28.30
2022-07-28T17:38:15.791Z,28.30
2022-07-28T17:41:09.093Z,28.20
2022-07-28T17:43:38.266Z,28.30
2022-07-28T17:46:12.723Z,28.40
2022-07-28T17:48:40.207Z,28.70
2022-07-28T17:51:16.007Z,29.10
2022-07-28T17:53:44.506Z,29.60
2022-07-28T17:56:28.280Z,29.90
2022-07-28T17:58:55.764Z,29.80
2022-07-28T18:01:22.768Z,29.60
2022-07-28T18:03:58.274Z,29.70
2022-07-28T18:06:36.479Z,29.70
2022-07-28T18:09:23.473Z,29.80
2022-07-28T18:11:56.965Z,29.40
2022-07-28T18:14:35.274Z,28.90
2022-07-28T18:17:02.552Z,28.20
2022-07-28T18:19:45.714Z,27.70
2022-07-28T18:22:12.792Z,27.40
2022-07-28T18:24:40.413Z,27.10
2022-07-28T18:27:08.467Z,26.90
2022-07-28T18:29:38.606Z,26.80
2022-07-28T18:32:12.588Z,26.70
2022-07-28T18:34:41.646Z,26.70
2022-07-28T18:37:08.685Z,26.60
2022-07-28T18:39:37.556Z,26.50
2022-07-28T18:42:19.013Z,26.40
2022-07-28T18:44:46.015Z,26.30
2022-07-28T18:47:12.957Z,26.20
2022-07-28T18:49:44.867Z,26.10
2022-07-28T18:52:11.779Z,26.00
2022-07-28T18:54:56.076Z,25.90
2022-07-28T18:57:30.212Z,25.80
2022-07-28T18:59:58.236Z,25.60
2022-07-28T19:02:26.223Z,25.70
2022-07-28T19:04:53.611Z,25.50
2022-07-28T19:07:20.551Z,25.30
2022-07-28T19:09:47.522Z,25.20
2022-07-28T19:12:15.131Z,25.00
2022-07-28T19:14:42.371Z,25.00
2022-07-28T19:17:09.845Z,24.90
2022-07-28T19:19:37.996Z,24.70
2022-07-28T19:22:07.315Z,24.50
2022-07-28T19:24:35.236Z,24.30
2022-07-28T19:27:07.129Z,24.10
2022-07-28T19:29:35.983Z,23.90
2022-07-28T19:32:04.555Z,23.70
2022-07-28T19:34:31.745Z,23.50
2022-07-28T19:36:58.930Z,23.40
2022-07-28T19:39:28.019Z,23.30
2022-07-28T19:41:56.029Z,23.10
2022-07-28T19:44:23.496Z,23.10
2022-07-28T19:46:53.048Z,23.10
2022-07-28T19:49:23.356Z,23.10
2022-07-28T19:51:50.634Z,22.90
2022-07-28T19:54:21.324Z,23.00
2022-07-28T19:56:49.506Z,22.90
2022-07-28T19:59:16.701Z,22.90
2022-07-28T20:01:46.882Z,22.80
2022-07-28T20:04:18.168Z,22.60
2022-07-28T20:06:46.245Z,22.40
2022-07-28T20:09:16.500Z,22.40
2022-07-28T20:11:43.498Z,22.40
2022-07-28T20:14:11.650Z,22.30
2022-07-28T20:16:38.820Z,22.40
2022-07-28T20:19:05.972Z,22.50
2022-07-28T20:21:39.326Z,22.50
2022-07-28T20:24:06.932Z,22.40
2022-07-28T20:26:36.599Z,22.10
2022-07-28T20:29:05.912Z,22.10
2022-07-28T20:31:33.051Z,21.90
2022-07-28T20:34:00.066Z,21.80
2022-07-28T20:36:29.910Z,21.70
2022-07-28T20:38:57.352Z,21.80
2022-07-28T20:41:24.532Z,21.80
2022-07-28T20:44:11.328Z,22.00
2022-07-28T20:46:38.578Z,22.00
2022-07-28T20:49:05.806Z,21.90
2022-07-28T20:51:32.916Z,21.80
2022-07-28T20:53:59.946Z,21.70
2022-07-28T20:56:28.043Z,21.50
2022-07-28T20:59:06.416Z,21.40
2022-07-28T21:01:34.127Z,21.50
2022-07-28T21:04:01.199Z,21.50
2022-07-28T21:06:28.181Z,21.60
2022-07-28T21:08:59.776Z,21.70
2022-07-28T21:11:35.111Z,21.80
2022-07-28T21:14:04.855Z,22.00
2022-07-28T21:16:32.282Z,22.00
2022-07-28T21:18:59.548Z,22.10
2022-07-28T21:21:26.550Z,22.20
2022-07-28T21:23:55.632Z,22.30
2022-07-28T21:26:22.705Z,22.40
2022-07-28T21:29:09.951Z,22.50
2022-07-28T21:32:03.636Z,22.60
2022-07-28T21:34:31.302Z,22.80
2022-07-28T21:36:58.679Z,22.80
2022-07-28T21:39:34.359Z,22.80
2022-07-28T21:42:02.280Z,22.80
2022-07-28T21:44:31.644Z,22.70
2022-07-28T21:46:58.711Z,22.70
2022-07-28T21:49:28.592Z,22.80
2022-07-28T21:51:55.579Z,22.70
2022-07-28T21:54:22.594Z,22.30
2022-07-28T21:56:50.144Z,22.20
2022-07-28T21:59:17.136Z,22.20
2022-07-28T22:01:44.141Z,22.20
2022-07-28T22:04:11.146Z,22.30
2022-07-28T22:06:38.062Z,22.40
2022-07-28T22:09:07.164Z,22.30
2022-07-28T22:11:35.183Z,22.30
2022-07-28T22:14:03.199Z,22.30
2022-07-28T22:16:30.189Z,22.40
2022-07-28T22:18:57.142Z,22.30
2022-07-28T22:21:24.069Z,22.20
2022-07-28T22:23:51.060Z,22.20
2022-07-28T22:26:19.108Z,22.20
2022-07-28T22:28:46.026Z,22.20
2022-07-28T22:31:13.088Z,22.20
2022-07-28T22:33:40.869Z,22.20
2022-07-28T22:36:08.891Z,22.10
2022-07-28T22:38:36.453Z,22.00
2022-07-28T22:41:04.037Z,21.90
2022-07-28T22:43:36.159Z,21.60
2022-07-28T22:46:03.185Z,21.60
2022-07-28T22:48:30.177Z,21.60
2022-07-28T22:51:02.220Z,21.40
2022-07-28T22:53:29.133Z,21.40
2022-07-28T22:55:56.081Z,21.40
2022-07-28T22:58:23.048Z,21.20
2022-07-28T23:00:49.997Z,21.10
2022-07-28T23:03:18.907Z,21.10
2022-07-28T23:05:45.966Z,21.00
2022-07-28T23:08:13.138Z,20.90
2022-07-28T23:10:51.531Z,20.80
2022-07-28T23:13:18.827Z,20.90
2022-07-28T23:15:45.892Z,20.80
2022-07-28T23:18:16.906Z,20.80
2022-07-28T23:20:45.923Z,20.70
2022-07-28T23:23:14.813Z,20.70
2022-07-28T23:25:42.894Z,20.80
2022-07-28T23:28:11.035Z,21.00
2022-07-28T23:30:38.351Z,20.90
2022-07-28T23:33:05.840Z,20.90
2022-07-28T23:35:35.532Z,20.90
2022-07-28T23:38:02.934Z,20.80
2022-07-28T23:40:29.921Z,20.70
2022-07-28T23:42:57.931Z,20.70
2022-07-28T23:45:25.228Z,20.70
2022-07-28T23:48:00.556Z,20.40
2022-07-28T23:50:27.524Z,20.10
2022-07-28T23:52:54.435Z,20.10
2022-07-28T23:55:30.755Z,20.10
2022-07-28T23:57:57.709Z,20.10
